sensor_id;sensor_type;location;lat;lon;timestamp;P1;durP1;ratioP1;P2;durP2;ratioP2
37955;SDS011;23776;51.592;7.180;2023-08-08T00:02:15;4.47;;;3.00;;
37955;SDS011;23776;51.592;7.180;2023-08-08T00:04:40;8.15;;;3.35;;
37955;SDS011;23776;51.592;7.180;2023-08-08T00:07:06;5.30;;;2.70;;
37955;SDS011;23776;51.592;7.180;2023-08-08T00:09:32;5.10;;;2.90;;
37955;SDS011;23776;51.592;7.180;2023-08-08T00:11:57;7.07;;;3.08;;
37955;SDS011;23776;51.592;7.180;2023-08-08T00:14:23;5.35;;;2.60;;
37955;SDS011;23776;51.592;7.180;2023-08-08T00:16:49;6.30;;;3.15;;
37955;SDS011;23776;51.592;7.180;2023-08-08T00:19:15;5.65;;;2.83;;
37955;SDS011;23776;51.592;7.180;2023-08-08T00:21:41;6.18;;;2.80;;
37955;SDS011;23776;51.592;7.180;2023-08-08T00:24:07;7.03;;;3.20;;
37955;SDS011;23776;51.592;7.180;2023-08-08T00:26:32;7.70;;;3.45;;
37955;SDS011;23776;51.592;7.180;2023-08-08T00:28:58;7.63;;;2.72;;
37955;SDS011;23776;51.592;7.180;2023-08-08T00:31:24;7.15;;;3.05;;
37955;SDS011;23776;51.592;7.180;2023-08-08T00:33:50;9.75;;;3.20;;
37955;SDS011;23776;51.592;7.180;2023-08-08T00:36:15;10.63;;;3.60;;
37955;SDS011;23776;51.592;7.180;2023-08-08T00:38:41;9.93;;;4.28;;
37955;SDS011;23776;51.592;7.180;2023-08-08T00:41:06;8.80;;;3.85;;
37955;SDS011;23776;51.592;7.180;2023-08-08T00:43:32;6.13;;;3.58;;
37955;SDS011;23776;51.592;7.180;2023-08-08T00:45:57;9.32;;;3.47;;
37955;SDS011;23776;51.592;7.180;2023-08-08T00:48:23;9.35;;;3.70;;
37955;SDS011;23776;51.592;7.180;2023-08-08T00:50:49;11.63;;;4.30;;
37955;SDS011;23776;51.592;7.180;2023-08-08T00:53:16;9.65;;;3.95;;
37955;SDS011;23776;51.592;7.180;2023-08-08T00:55:45;6.32;;;3.95;;
37955;SDS011;23776;51.592;7.180;2023-08-08T00:58:11;10.38;;;3.85;;
37955;SDS011;23776;51.592;7.180;2023-08-08T01:00:37;5.10;;;3.30;;
37955;SDS011;23776;51.592;7.180;2023-08-08T01:03:03;7.53;;;3.38;;
37955;SDS011;23776;51.592;7.180;2023-08-08T01:05:32;11.85;;;3.72;;
37955;SDS011;23776;51.592;7.180;2023-08-08T01:08:03;7.60;;;3.25;;
37955;SDS011;23776;51.592;7.180;2023-08-08T01:10:34;7.80;;;3.53;;
37955;SDS011;23776;51.592;7.180;2023-08-08T01:13:04;9.45;;;3.00;;
37955;SDS011;23776;51.592;7.180;2023-08-08T01:15:33;7.30;;;3.20;;
37955;SDS011;23776;51.592;7.180;2023-08-08T01:18:03;7.38;;;3.30;;
37955;SDS011;23776;51.592;7.180;2023-08-08T01:20:31;5.30;;;2.65;;
37955;SDS011;23776;51.592;7.180;2023-08-08T01:25:50;7.32;;;3.10;;
37955;SDS011;23776;51.592;7.180;2023-08-08T01:28:20;6.53;;;3.22;;
37955;SDS011;23776;51.592;7.180;2023-08-08T01:30:49;7.40;;;2.65;;
37955;SDS011;23776;51.592;7.180;2023-08-08T01:33:15;8.90;;;3.45;;
37955;SDS011;23776;51.592;7.180;2023-08-08T01:35:41;6.50;;;3.22;;
37955;SDS011;23776;51.592;7.180;2023-08-08T01:38:20;9.35;;;3.30;;
37955;SDS011;23776;51.592;7.180;2023-08-08T01:40:51;7.78;;;2.97;;
37955;SDS011;23776;51.592;7.180;2023-08-08T01:43:17;5.40;;;3.47;;
37955;SDS011;23776;51.592;7.180;2023-08-08T01:45:44;7.43;;;3.10;;
37955;SDS011;23776;51.592;7.180;2023-08-08T01:48:10;7.65;;;3.53;;
37955;SDS011;23776;51.592;7.180;2023-08-08T01:50:37;7.95;;;3.08;;
37955;SDS011;23776;51.592;7.180;2023-08-08T01:53:03;6.45;;;2.95;;
37955;SDS011;23776;51.592;7.180;2023-08-08T01:55:29;10.75;;;3.20;;
37955;SDS011;23776;51.592;7.180;2023-08-08T01:57:55;11.93;;;3.30;;
37955;SDS011;23776;51.592;7.180;2023-08-08T02:00:21;9.77;;;3.05;;
37955;SDS011;23776;51.592;7.180;2023-08-08T02:02:47;5.45;;;2.35;;
37955;SDS011;23776;51.592;7.180;2023-08-08T02:05:13;7.28;;;3.25;;
37955;SDS011;23776;51.592;7.180;2023-08-08T02:07:38;5.15;;;2.80;;
37955;SDS011;23776;51.592;7.180;2023-08-08T02:10:04;6.90;;;3.08;;
37955;SDS011;23776;51.592;7.180;2023-08-08T02:12:30;11.55;;;3.08;;
37955;SDS011;23776;51.592;7.180;2023-08-08T02:14:56;6.15;;;2.70;;
37955;SDS011;23776;51.592;7.180;2023-08-08T02:17:22;6.68;;;2.70;;
37955;SDS011;23776;51.592;7.180;2023-08-08T02:19:48;5.97;;;2.78;;
37955;SDS011;23776;51.592;7.180;2023-08-08T02:22:14;6.43;;;2.53;;
37955;SDS011;23776;51.592;7.180;2023-08-08T02:24:39;8.30;;;3.13;;
37955;SDS011;23776;51.592;7.180;2023-08-08T02:27:05;7.55;;;2.90;;
37955;SDS011;23776;51.592;7.180;2023-08-08T02:29:30;6.78;;;2.72;;
37955;SDS011;23776;51.592;7.180;2023-08-08T02:31:56;5.72;;;3.20;;
37955;SDS011;23776;51.592;7.180;2023-08-08T02:34:21;8.20;;;3.80;;
37955;SDS011;23776;51.592;7.180;2023-08-08T02:36:47;12.45;;;3.22;;
37955;SDS011;23776;51.592;7.180;2023-08-08T02:39:13;8.05;;;2.63;;
37955;SDS011;23776;51.592;7.180;2023-08-08T02:41:38;13.27;;;3.40;;
37955;SDS011;23776;51.592;7.180;2023-08-08T02:44:04;5.88;;;2.42;;
37955;SDS011;23776;51.592;7.180;2023-08-08T02:46:30;6.60;;;2.63;;
37955;SDS011;23776;51.592;7.180;2023-08-08T02:48:55;9.73;;;3.33;;
37955;SDS011;23776;51.592;7.180;2023-08-08T02:51:21;7.65;;;3.05;;
37955;SDS011;23776;51.592;7.180;2023-08-08T02:53:46;8.85;;;3.05;;
37955;SDS011;23776;51.592;7.180;2023-08-08T02:56:12;10.05;;;2.95;;
37955;SDS011;23776;51.592;7.180;2023-08-08T02:58:38;9.50;;;3.20;;
37955;SDS011;23776;51.592;7.180;2023-08-08T03:01:03;9.55;;;3.00;;
37955;SDS011;23776;51.592;7.180;2023-08-08T03:03:29;6.60;;;3.03;;
37955;SDS011;23776;51.592;7.180;2023-08-08T03:05:54;5.18;;;2.90;;
37955;SDS011;23776;51.592;7.180;2023-08-08T03:08:20;9.27;;;2.80;;
37955;SDS011;23776;51.592;7.180;2023-08-08T03:10:45;6.25;;;2.95;;
37955;SDS011;23776;51.592;7.180;2023-08-08T03:13:11;8.13;;;3.10;;
37955;SDS011;23776;51.592;7.180;2023-08-08T03:15:37;6.95;;;3.08;;
37955;SDS011;23776;51.592;7.180;2023-08-08T03:18:02;19.85;;;4.63;;
37955;SDS011;23776;51.592;7.180;2023-08-08T03:20:28;10.02;;;3.85;;
37955;SDS011;23776;51.592;7.180;2023-08-08T03:22:54;12.63;;;4.40;;
37955;SDS011;23776;51.592;7.180;2023-08-08T03:25:19;19.60;;;4.28;;
37955;SDS011;23776;51.592;7.180;2023-08-08T03:27:45;12.30;;;4.38;;
37955;SDS011;23776;51.592;7.180;2023-08-08T03:30:11;11.15;;;4.95;;
37955;SDS011;23776;51.592;7.180;2023-08-08T03:32:37;9.88;;;4.20;;
37955;SDS011;23776;51.592;7.180;2023-08-08T03:35:03;12.13;;;5.60;;
37955;SDS011;23776;51.592;7.180;2023-08-08T03:37:29;15.38;;;5.55;;
37955;SDS011;23776;51.592;7.180;2023-08-08T03:39:55;11.70;;;4.93;;
37955;SDS011;23776;51.592;7.180;2023-08-08T03:42:20;11.90;;;4.63;;
37955;SDS011;23776;51.592;7.180;2023-08-08T03:44:46;11.35;;;5.18;;
37955;SDS011;23776;51.592;7.180;2023-08-08T03:47:12;12.48;;;5.53;;
37955;SDS011;23776;51.592;7.180;2023-08-08T03:49:37;12.20;;;5.25;;
37955;SDS011;23776;51.592;7.180;2023-08-08T03:52:03;10.52;;;5.32;;
37955;SDS011;23776;51.592;7.180;2023-08-08T03:54:29;11.50;;;5.47;;
37955;SDS011;23776;51.592;7.180;2023-08-08T03:56:54;13.48;;;4.60;;
37955;SDS011;23776;51.592;7.180;2023-08-08T03:59:20;13.55;;;5.15;;
37955;SDS011;23776;51.592;7.180;2023-08-08T04:01:45;16.38;;;6.07;;
37955;SDS011;23776;51.592;7.180;2023-08-08T04:04:11;10.85;;;5.25;;
37955;SDS011;23776;51.592;7.180;2023-08-08T04:06:36;14.55;;;6.05;;
37955;SDS011;23776;51.592;7.180;2023-08-08T04:09:02;15.88;;;6.18;;
37955;SDS011;23776;51.592;7.180;2023-08-08T04:11:28;20.20;;;6.15;;
37955;SDS011;23776;51.592;7.180;2023-08-08T04:13:53;20.10;;;6.93;;
37955;SDS011;23776;51.592;7.180;2023-08-08T04:16:19;12.45;;;5.35;;
37955;SDS011;23776;51.592;7.180;2023-08-08T04:18:45;15.50;;;6.85;;
37955;SDS011;23776;51.592;7.180;2023-08-08T04:21:10;15.25;;;6.47;;
37955;SDS011;23776;51.592;7.180;2023-08-08T04:23:36;19.42;;;7.22;;
37955;SDS011;23776;51.592;7.180;2023-08-08T04:26:01;14.55;;;6.53;;
37955;SDS011;23776;51.592;7.180;2023-08-08T04:28:27;11.43;;;5.70;;
37955;SDS011;23776;51.592;7.180;2023-08-08T04:30:53;13.88;;;7.05;;
37955;SDS011;23776;51.592;7.180;2023-08-08T04:33:18;15.88;;;6.10;;
37955;SDS011;23776;51.592;7.180;2023-08-08T04:35:44;14.88;;;6.60;;
37955;SDS011;23776;51.592;7.180;2023-08-08T04:38:10;13.63;;;7.18;;
37955;SDS011;23776;51.592;7.180;2023-08-08T04:40:35;10.75;;;6.60;;
37955;SDS011;23776;51.592;7.180;2023-08-08T04:43:01;13.88;;;6.45;;
37955;SDS011;23776;51.592;7.180;2023-08-08T04:45:26;20.13;;;6.88;;
37955;SDS011;23776;51.592;7.180;2023-08-08T04:47:54;15.05;;;7.80;;
37955;SDS011;23776;51.592;7.180;2023-08-08T04:50:19;17.00;;;6.97;;
37955;SDS011;23776;51.592;7.180;2023-08-08T04:52:45;15.85;;;7.93;;
37955;SDS011;23776;51.592;7.180;2023-08-08T04:55:10;14.15;;;6.60;;
37955;SDS011;23776;51.592;7.180;2023-08-08T04:57:36;16.70;;;7.35;;
37955;SDS011;23776;51.592;7.180;2023-08-08T05:00:02;13.50;;;6.95;;
37955;SDS011;23776;51.592;7.180;2023-08-08T05:02:30;15.88;;;7.18;;
37955;SDS011;23776;51.592;7.180;2023-08-08T05:04:55;12.93;;;6.63;;
37955;SDS011;23776;51.592;7.180;2023-08-08T05:07:21;20.98;;;8.77;;
37955;SDS011;23776;51.592;7.180;2023-08-08T05:09:47;17.80;;;8.00;;
37955;SDS011;23776;51.592;7.180;2023-08-08T05:12:12;17.25;;;9.80;;
37955;SDS011;23776;51.592;7.180;2023-08-08T05:14:38;27.35;;;9.27;;
37955;SDS011;23776;51.592;7.180;2023-08-08T05:17:03;18.67;;;7.85;;
37955;SDS011;23776;51.592;7.180;2023-08-08T05:19:29;24.20;;;9.57;;
37955;SDS011;23776;51.592;7.180;2023-08-08T05:21:55;16.42;;;8.93;;
37955;SDS011;23776;51.592;7.180;2023-08-08T05:24:20;25.13;;;11.55;;
37955;SDS011;23776;51.592;7.180;2023-08-08T05:26:46;25.55;;;11.30;;
37955;SDS011;23776;51.592;7.180;2023-08-08T05:29:12;26.05;;;11.60;;
37955;SDS011;23776;51.592;7.180;2023-08-08T05:31:37;30.60;;;11.73;;
37955;SDS011;23776;51.592;7.180;2023-08-08T05:34:03;34.67;;;12.20;;
37955;SDS011;23776;51.592;7.180;2023-08-08T05:36:28;31.33;;;12.77;;
37955;SDS011;23776;51.592;7.180;2023-08-08T05:38:54;24.63;;;12.55;;
37955;SDS011;23776;51.592;7.180;2023-08-08T05:41:19;22.77;;;12.35;;
37955;SDS011;23776;51.592;7.180;2023-08-08T05:43:45;24.90;;;11.85;;
37955;SDS011;23776;51.592;7.180;2023-08-08T05:46:10;24.92;;;11.70;;
37955;SDS011;23776;51.592;7.180;2023-08-08T05:48:36;21.67;;;12.18;;
37955;SDS011;23776;51.592;7.180;2023-08-08T05:51:02;23.70;;;12.60;;
37955;SDS011;23776;51.592;7.180;2023-08-08T05:53:29;25.23;;;11.82;;
37955;SDS011;23776;51.592;7.180;2023-08-08T05:55:56;22.60;;;11.88;;
37955;SDS011;23776;51.592;7.180;2023-08-08T05:58:22;42.40;;;16.08;;
37955;SDS011;23776;51.592;7.180;2023-08-08T06:00:47;27.38;;;14.05;;
37955;SDS011;23776;51.592;7.180;2023-08-08T06:03:13;38.50;;;15.07;;
37955;SDS011;23776;51.592;7.180;2023-08-08T06:05:38;27.70;;;13.02;;
37955;SDS011;23776;51.592;7.180;2023-08-08T06:08:04;28.63;;;14.48;;
37955;SDS011;23776;51.592;7.180;2023-08-08T06:10:32;31.02;;;15.75;;
37955;SDS011;23776;51.592;7.180;2023-08-08T06:12:59;29.05;;;14.38;;
37955;SDS011;23776;51.592;7.180;2023-08-08T06:15:25;32.95;;;15.05;;
37955;SDS011;23776;51.592;7.180;2023-08-08T06:17:50;26.05;;;13.95;;
37955;SDS011;23776;51.592;7.180;2023-08-08T06:20:16;30.80;;;16.70;;
37955;SDS011;23776;51.592;7.180;2023-08-08T06:22:42;33.70;;;16.20;;
37955;SDS011;23776;51.592;7.180;2023-08-08T06:25:07;31.20;;;15.85;;
37955;SDS011;23776;51.592;7.180;2023-08-08T06:27:33;38.70;;;18.92;;
37955;SDS011;23776;51.592;7.180;2023-08-08T06:29:58;45.90;;;21.10;;
37955;SDS011;23776;51.592;7.180;2023-08-08T06:32:24;49.20;;;24.15;;
37955;SDS011;23776;51.592;7.180;2023-08-08T06:34:50;59.03;;;29.05;;
37955;SDS011;23776;51.592;7.180;2023-08-08T06:37:15;60.50;;;29.35;;
37955;SDS011;23776;51.592;7.180;2023-08-08T06:39:41;55.72;;;28.92;;
37955;SDS011;23776;51.592;7.180;2023-08-08T06:42:07;56.95;;;28.83;;
37955;SDS011;23776;51.592;7.180;2023-08-08T06:44:32;60.92;;;29.25;;
37955;SDS011;23776;51.592;7.180;2023-08-08T06:46:58;65.82;;;29.17;;
37955;SDS011;23776;51.592;7.180;2023-08-08T06:49:24;59.97;;;29.80;;
37955;SDS011;23776;51.592;7.180;2023-08-08T06:51:49;61.47;;;28.58;;
37955;SDS011;23776;51.592;7.180;2023-08-08T06:54:15;62.53;;;28.85;;
37955;SDS011;23776;51.592;7.180;2023-08-08T06:56:41;49.50;;;27.23;;
37955;SDS011;23776;51.592;7.180;2023-08-08T06:59:06;48.13;;;27.63;;
37955;SDS011;23776;51.592;7.180;2023-08-08T07:01:32;50.40;;;25.90;;
37955;SDS011;23776;51.592;7.180;2023-08-08T07:03:58;51.90;;;25.35;;
37955;SDS011;23776;51.592;7.180;2023-08-08T07:06:24;50.58;;;24.20;;
37955;SDS011;23776;51.592;7.180;2023-08-08T07:08:50;44.72;;;24.23;;
37955;SDS011;23776;51.592;7.180;2023-08-08T07:11:16;36.85;;;21.85;;
37955;SDS011;23776;51.592;7.180;2023-08-08T07:13:41;42.55;;;22.40;;
37955;SDS011;23776;51.592;7.180;2023-08-08T07:16:07;40.03;;;22.05;;
37955;SDS011;23776;51.592;7.180;2023-08-08T07:18:32;42.10;;;21.65;;
37955;SDS011;23776;51.592;7.180;2023-08-08T07:20:58;45.60;;;23.08;;
37955;SDS011;23776;51.592;7.180;2023-08-08T07:23:23;50.92;;;22.90;;
37955;SDS011;23776;51.592;7.180;2023-08-08T07:25:49;42.08;;;19.58;;
37955;SDS011;23776;51.592;7.180;2023-08-08T07:28:15;39.30;;;21.00;;
37955;SDS011;23776;51.592;7.180;2023-08-08T07:30:41;39.90;;;20.83;;
37955;SDS011;23776;51.592;7.180;2023-08-08T07:33:06;39.15;;;20.33;;
37955;SDS011;23776;51.592;7.180;2023-08-08T07:35:35;30.55;;;18.88;;
37955;SDS011;23776;51.592;7.180;2023-08-08T07:38:00;32.67;;;18.58;;
37955;SDS011;23776;51.592;7.180;2023-08-08T07:40:26;30.33;;;16.63;;
37955;SDS011;23776;51.592;7.180;2023-08-08T07:42:52;35.25;;;18.10;;
37955;SDS011;23776;51.592;7.180;2023-08-08T07:45:18;35.33;;;16.15;;
37955;SDS011;23776;51.592;7.180;2023-08-08T07:47:43;24.98;;;14.40;;
37955;SDS011;23776;51.592;7.180;2023-08-08T07:50:10;40.60;;;15.50;;
37955;SDS011;23776;51.592;7.180;2023-08-08T07:52:37;26.80;;;13.70;;
37955;SDS011;23776;51.592;7.180;2023-08-08T07:55:03;30.98;;;14.50;;
37955;SDS011;23776;51.592;7.180;2023-08-08T07:57:29;28.23;;;13.57;;
37955;SDS011;23776;51.592;7.180;2023-08-08T07:59:56;25.95;;;11.73;;
37955;SDS011;23776;51.592;7.180;2023-08-08T08:02:22;25.98;;;12.77;;
37955;SDS011;23776;51.592;7.180;2023-08-08T08:04:47;26.55;;;11.10;;
37955;SDS011;23776;51.592;7.180;2023-08-08T08:07:13;25.90;;;11.23;;
37955;SDS011;23776;51.592;7.180;2023-08-08T08:09:38;20.30;;;10.55;;
37955;SDS011;23776;51.592;7.180;2023-08-08T08:12:07;19.08;;;10.00;;
37955;SDS011;23776;51.592;7.180;2023-08-08T08:14:33;24.45;;;8.60;;
37955;SDS011;23776;51.592;7.180;2023-08-08T08:16:59;20.05;;;8.15;;
37955;SDS011;23776;51.592;7.180;2023-08-08T08:19:25;17.42;;;8.27;;
37955;SDS011;23776;51.592;7.180;2023-08-08T08:21:50;20.23;;;8.52;;
37955;SDS011;23776;51.592;7.180;2023-08-08T08:24:16;26.83;;;7.35;;
37955;SDS011;23776;51.592;7.180;2023-08-08T08:26:42;19.52;;;7.50;;
37955;SDS011;23776;51.592;7.180;2023-08-08T08:29:07;19.63;;;6.82;;
37955;SDS011;23776;51.592;7.180;2023-08-08T08:31:33;19.00;;;6.15;;
37955;SDS011;23776;51.592;7.180;2023-08-08T08:33:58;26.55;;;7.63;;
37955;SDS011;23776;51.592;7.180;2023-08-08T08:36:24;18.27;;;6.90;;
37955;SDS011;23776;51.592;7.180;2023-08-08T08:38:51;21.65;;;7.00;;
37955;SDS011;23776;51.592;7.180;2023-08-08T08:41:17;16.10;;;5.97;;
37955;SDS011;23776;51.592;7.180;2023-08-08T08:43:44;12.45;;;5.25;;
37955;SDS011;23776;51.592;7.180;2023-08-08T08:46:11;10.02;;;4.43;;
37955;SDS011;23776;51.592;7.180;2023-08-08T08:48:39;12.70;;;5.57;;
37955;SDS011;23776;51.592;7.180;2023-08-08T08:51:06;15.88;;;5.90;;
37955;SDS011;23776;51.592;7.180;2023-08-08T08:53:32;9.82;;;3.40;;
37955;SDS011;23776;51.592;7.180;2023-08-08T08:56:00;12.32;;;3.30;;
37955;SDS011;23776;51.592;7.180;2023-08-08T08:58:27;9.02;;;2.60;;
37955;SDS011;23776;51.592;7.180;2023-08-08T09:00:54;10.75;;;2.67;;
37955;SDS011;23776;51.592;7.180;2023-08-08T09:03:20;8.10;;;2.95;;
37955;SDS011;23776;51.592;7.180;2023-08-08T09:05:46;10.20;;;2.92;;
37955;SDS011;23776;51.592;7.180;2023-08-08T09:08:13;14.45;;;3.05;;
37955;SDS011;23776;51.592;7.180;2023-08-08T09:10:40;12.18;;;2.92;;
37955;SDS011;23776;51.592;7.180;2023-08-08T09:13:05;8.23;;;2.35;;
37955;SDS011;23776;51.592;7.180;2023-08-08T09:15:31;5.95;;;3.17;;
37955;SDS011;23776;51.592;7.180;2023-08-08T09:17:57;10.27;;;2.50;;
37955;SDS011;23776;51.592;7.180;2023-08-08T09:20:25;10.77;;;2.08;;
37955;SDS011;23776;51.592;7.180;2023-08-08T09:22:53;10.93;;;2.65;;
37955;SDS011;23776;51.592;7.180;2023-08-08T09:25:19;6.50;;;2.58;;
37955;SDS011;23776;51.592;7.180;2023-08-08T09:27:45;9.30;;;2.72;;
37955;SDS011;23776;51.592;7.180;2023-08-08T09:30:12;5.80;;;2.80;;
37955;SDS011;23776;51.592;7.180;2023-08-08T09:32:38;12.00;;;2.55;;
37955;SDS011;23776;51.592;7.180;2023-08-08T09:35:04;8.32;;;2.67;;
37955;SDS011;23776;51.592;7.180;2023-08-08T09:37:32;9.75;;;3.00;;
37955;SDS011;23776;51.592;7.180;2023-08-08T09:39:59;12.32;;;2.60;;
37955;SDS011;23776;51.592;7.180;2023-08-08T09:42:26;10.80;;;2.28;;
37955;SDS011;23776;51.592;7.180;2023-08-08T09:44:52;11.35;;;2.53;;
37955;SDS011;23776;51.592;7.180;2023-08-08T09:47:18;7.57;;;2.25;;
37955;SDS011;23776;51.592;7.180;2023-08-08T09:49:46;13.55;;;2.00;;
37955;SDS011;23776;51.592;7.180;2023-08-08T09:52:12;7.13;;;2.25;;
37955;SDS011;23776;51.592;7.180;2023-08-08T09:54:38;4.13;;;2.42;;
37955;SDS011;23776;51.592;7.180;2023-08-08T09:57:05;10.45;;;2.95;;
37955;SDS011;23776;51.592;7.180;2023-08-08T09:59:31;14.98;;;4.25;;
37955;SDS011;23776;51.592;7.180;2023-08-08T10:01:58;13.13;;;5.30;;
37955;SDS011;23776;51.592;7.180;2023-08-08T10:04:25;8.95;;;3.03;;
37955;SDS011;23776;51.592;7.180;2023-08-08T10:06:51;8.32;;;3.13;;
37955;SDS011;23776;51.592;7.180;2023-08-08T10:09:17;13.05;;;2.75;;
37955;SDS011;23776;51.592;7.180;2023-08-08T10:11:43;8.85;;;2.90;;
37955;SDS011;23776;51.592;7.180;2023-08-08T10:14:09;12.85;;;4.70;;
37955;SDS011;23776;51.592;7.180;2023-08-08T10:16:36;12.07;;;5.30;;
37955;SDS011;23776;51.592;7.180;2023-08-08T10:19:03;12.05;;;4.88;;
37955;SDS011;23776;51.592;7.180;2023-08-08T10:21:33;7.78;;;3.30;;
37955;SDS011;23776;51.592;7.180;2023-08-08T10:24:00;6.70;;;3.22;;
37955;SDS011;23776;51.592;7.180;2023-08-08T10:26:30;14.57;;;3.42;;
37955;SDS011;23776;51.592;7.180;2023-08-08T10:28:56;7.22;;;3.13;;
37955;SDS011;23776;51.592;7.180;2023-08-08T10:31:23;13.27;;;3.53;;
37955;SDS011;23776;51.592;7.180;2023-08-08T10:33:49;12.85;;;3.45;;
37955;SDS011;23776;51.592;7.180;2023-08-08T10:36:14;7.07;;;2.90;;
37955;SDS011;23776;51.592;7.180;2023-08-08T10:41:11;10.32;;;3.35;;
37955;SDS011;23776;51.592;7.180;2023-08-08T10:43:46;11.75;;;3.72;;
37955;SDS011;23776;51.592;7.180;2023-08-08T10:46:52;30.70;;;13.07;;
37955;SDS011;23776;51.592;7.180;2023-08-08T10:49:11;27.60;;;11.32;;
37955;SDS011;23776;51.592;7.180;2023-08-08T10:54:14;15.63;;;5.68;;
37955;SDS011;23776;51.592;7.180;2023-08-08T10:56:51;17.42;;;7.30;;
37955;SDS011;23776;51.592;7.180;2023-08-08T10:59:22;18.20;;;7.32;;
37955;SDS011;23776;51.592;7.180;2023-08-08T11:01:52;21.48;;;8.52;;
37955;SDS011;23776;51.592;7.180;2023-08-08T11:04:18;15.95;;;6.95;;
37955;SDS011;23776;51.592;7.180;2023-08-08T11:06:46;14.93;;;6.25;;
37955;SDS011;23776;51.592;7.180;2023-08-08T11:09:13;18.50;;;7.85;;
37955;SDS011;23776;51.592;7.180;2023-08-08T11:11:40;11.68;;;5.10;;
37955;SDS011;23776;51.592;7.180;2023-08-08T11:14:10;18.02;;;6.43;;
37955;SDS011;23776;51.592;7.180;2023-08-08T11:16:40;34.28;;;12.45;;
37955;SDS011;23776;51.592;7.180;2023-08-08T11:19:07;14.32;;;6.03;;
37955;SDS011;23776;51.592;7.180;2023-08-08T11:21:35;11.57;;;4.93;;
37955;SDS011;23776;51.592;7.180;2023-08-08T11:24:03;10.02;;;4.50;;
37955;SDS011;23776;51.592;7.180;2023-08-08T11:26:29;10.65;;;4.75;;
37955;SDS011;23776;51.592;7.180;2023-08-08T11:28:57;9.90;;;3.58;;
37955;SDS011;23776;51.592;7.180;2023-08-08T11:31:24;18.02;;;4.75;;
37955;SDS011;23776;51.592;7.180;2023-08-08T11:33:50;18.45;;;4.70;;
37955;SDS011;23776;51.592;7.180;2023-08-08T11:36:15;9.50;;;3.92;;
37955;SDS011;23776;51.592;7.180;2023-08-08T11:38:41;14.13;;;4.53;;
37955;SDS011;23776;51.592;7.180;2023-08-08T11:41:09;8.82;;;4.40;;
37955;SDS011;23776;51.592;7.180;2023-08-08T11:43:37;10.68;;;4.80;;
37955;SDS011;23776;51.592;7.180;2023-08-08T11:46:12;5.45;;;3.22;;
37955;SDS011;23776;51.592;7.180;2023-08-08T11:48:38;6.07;;;3.10;;
37955;SDS011;23776;51.592;7.180;2023-08-08T11:51:04;6.90;;;2.58;;
37955;SDS011;23776;51.592;7.180;2023-08-08T11:53:31;7.32;;;2.60;;
37955;SDS011;23776;51.592;7.180;2023-08-08T11:55:57;4.38;;;2.00;;
37955;SDS011;23776;51.592;7.180;2023-08-08T11:58:24;7.53;;;2.65;;
37955;SDS011;23776;51.592;7.180;2023-08-08T12:00:51;9.55;;;2.53;;
37955;SDS011;23776;51.592;7.180;2023-08-08T12:03:19;5.00;;;2.10;;
37955;SDS011;23776;51.592;7.180;2023-08-08T12:05:47;9.50;;;2.72;;
37955;SDS011;23776;51.592;7.180;2023-08-08T12:08:17;7.80;;;2.88;;
37955;SDS011;23776;51.592;7.180;2023-08-08T12:10:50;4.57;;;2.40;;
37955;SDS011;23776;51.592;7.180;2023-08-08T12:13:22;6.50;;;2.78;;
37955;SDS011;23776;51.592;7.180;2023-08-08T12:15:52;10.18;;;2.60;;
37955;SDS011;23776;51.592;7.180;2023-08-08T12:18:18;9.07;;;2.30;;
37955;SDS011;23776;51.592;7.180;2023-08-08T12:20:44;6.05;;;2.45;;
37955;SDS011;23776;51.592;7.180;2023-08-08T12:23:10;6.22;;;2.60;;
37955;SDS011;23776;51.592;7.180;2023-08-08T12:25:36;4.07;;;1.77;;
37955;SDS011;23776;51.592;7.180;2023-08-08T12:28:03;6.13;;;2.70;;
37955;SDS011;23776;51.592;7.180;2023-08-08T12:30:29;3.33;;;2.13;;
37955;SDS011;23776;51.592;7.180;2023-08-08T12:32:56;6.20;;;2.55;;
37955;SDS011;23776;51.592;7.180;2023-08-08T12:35:22;7.57;;;2.72;;
37955;SDS011;23776;51.592;7.180;2023-08-08T12:37:47;3.80;;;2.17;;
37955;SDS011;23776;51.592;7.180;2023-08-08T12:40:13;3.40;;;1.92;;
37955;SDS011;23776;51.592;7.180;2023-08-08T12:42:38;6.40;;;2.28;;
37955;SDS011;23776;51.592;7.180;2023-08-08T12:45:05;6.40;;;2.05;;
37955;SDS011;23776;51.592;7.180;2023-08-08T12:47:31;8.55;;;2.22;;
37955;SDS011;23776;51.592;7.180;2023-08-08T12:49:57;5.50;;;2.40;;
37955;SDS011;23776;51.592;7.180;2023-08-08T12:52:23;6.32;;;2.58;;
37955;SDS011;23776;51.592;7.180;2023-08-08T12:54:49;11.00;;;2.20;;
37955;SDS011;23776;51.592;7.180;2023-08-08T12:57:14;8.23;;;2.10;;
37955;SDS011;23776;51.592;7.180;2023-08-08T12:59:40;8.38;;;1.95;;
37955;SDS011;23776;51.592;7.180;2023-08-08T13:02:07;6.20;;;1.67;;
37955;SDS011;23776;51.592;7.180;2023-08-08T13:04:32;5.25;;;1.85;;
37955;SDS011;23776;51.592;7.180;2023-08-08T13:06:58;4.38;;;1.80;;
37955;SDS011;23776;51.592;7.180;2023-08-08T13:09:24;4.28;;;1.98;;
37955;SDS011;23776;51.592;7.180;2023-08-08T13:11:50;4.53;;;2.05;;
37955;SDS011;23776;51.592;7.180;2023-08-08T13:14:15;8.05;;;2.20;;
37955;SDS011;23776;51.592;7.180;2023-08-08T13:16:41;5.30;;;1.77;;
37955;SDS011;23776;51.592;7.180;2023-08-08T13:19:07;5.85;;;2.20;;
37955;SDS011;23776;51.592;7.180;2023-08-08T13:21:33;5.60;;;2.15;;
37955;SDS011;23776;51.592;7.180;2023-08-08T13:23:59;6.30;;;2.35;;
37955;SDS011;23776;51.592;7.180;2023-08-08T13:26:24;4.43;;;2.10;;
37955;SDS011;23776;51.592;7.180;2023-08-08T13:28:50;6.30;;;2.72;;
37955;SDS011;23776;51.592;7.180;2023-08-08T13:31:15;4.88;;;2.10;;
37955;SDS011;23776;51.592;7.180;2023-08-08T13:33:41;5.43;;;2.40;;
37955;SDS011;23776;51.592;7.180;2023-08-08T13:36:09;8.20;;;2.90;;
37955;SDS011;23776;51.592;7.180;2023-08-08T13:38:35;7.05;;;2.47;;
37955;SDS011;23776;51.592;7.180;2023-08-08T13:41:00;5.28;;;2.15;;
37955;SDS011;23776;51.592;7.180;2023-08-08T13:43:26;7.60;;;1.83;;
37955;SDS011;23776;51.592;7.180;2023-08-08T13:45:52;10.68;;;2.33;;
37955;SDS011;23776;51.592;7.180;2023-08-08T13:48:17;4.88;;;2.03;;
37955;SDS011;23776;51.592;7.180;2023-08-08T13:50:43;3.00;;;1.30;;
37955;SDS011;23776;51.592;7.180;2023-08-08T13:53:09;4.07;;;1.85;;
37955;SDS011;23776;51.592;7.180;2023-08-08T13:55:34;10.18;;;2.20;;
37955;SDS011;23776;51.592;7.180;2023-08-08T13:58:04;6.68;;;1.90;;
37955;SDS011;23776;51.592;7.180;2023-08-08T14:00:30;7.70;;;1.90;;
37955;SDS011;23776;51.592;7.180;2023-08-08T14:02:57;13.10;;;2.20;;
37955;SDS011;23776;51.592;7.180;2023-08-08T14:05:22;4.75;;;1.77;;
37955;SDS011;23776;51.592;7.180;2023-08-08T14:07:48;7.25;;;1.92;;
37955;SDS011;23776;51.592;7.180;2023-08-08T14:10:14;6.20;;;2.00;;
37955;SDS011;23776;51.592;7.180;2023-08-08T14:12:40;7.40;;;2.20;;
37955;SDS011;23776;51.592;7.180;2023-08-08T14:15:06;4.38;;;2.45;;
37955;SDS011;23776;51.592;7.180;2023-08-08T14:17:34;9.32;;;1.80;;
37955;SDS011;23776;51.592;7.180;2023-08-08T14:19:59;7.35;;;2.28;;
37955;SDS011;23776;51.592;7.180;2023-08-08T14:22:25;3.63;;;2.00;;
37955;SDS011;23776;51.592;7.180;2023-08-08T14:24:51;4.55;;;2.10;;
37955;SDS011;23776;51.592;7.180;2023-08-08T14:27:16;6.78;;;2.20;;
37955;SDS011;23776;51.592;7.180;2023-08-08T14:29:42;4.97;;;2.30;;
37955;SDS011;23776;51.592;7.180;2023-08-08T14:32:08;3.10;;;1.88;;
37955;SDS011;23776;51.592;7.180;2023-08-08T14:34:33;6.07;;;1.70;;
37955;SDS011;23776;51.592;7.180;2023-08-08T14:37:00;5.30;;;1.63;;
37955;SDS011;23776;51.592;7.180;2023-08-08T14:39:26;4.93;;;1.90;;
37955;SDS011;23776;51.592;7.180;2023-08-08T14:41:52;7.28;;;1.88;;